Flight Track Log - Related Links

Times and Time Zones

All times are in EDT time to prevent confusion due to time zone crossing. See the ASQ5678 flight status page for this flight to view local times or setup timezone preferences in your user account.

Time Position Orientation Groundspeed Altitude Reporting Facility
EDT Latitude Longitude Course Direction KTS MPH feet Rate Location/Type
Tue 17:33:48 40.7167 -74.1333 333° Northwest 192 221 2,000  Level New TRACON
Tue 17:34:48 40.7667 -74.1667 333° Northwest 256 295 5,200 3,350 Climbing New TRACON
Tue 17:35:48 40.7667 -74.2500 270° West 280 322 8,700 3,350 Climbing New TRACON
Tue 17:36:48 40.7500 -74.3500 258° West 281 323 11,900 1,650 Climbing New TRACON
Tue 17:37:48 40.8000 -74.4167 315° West 279 321 12,000 1,300 Climbing New TRACON
Tue 17:38:48 40.8833 -74.4333 351° North 280 322 14,500 2,444 Climbing New TRACON
Tue 17:39:36 40.9261 -74.4842 318° Northwest 293 337 16,400 1,431 Climbing New Center
Tue 17:40:37 40.8911 -74.6031 249° West 293 337 17,100 298 Climbing New Center
Tue 17:41:37 40.8436 -74.7156 241° Southwest 353 406 17,000 645 Descending New Center
Tue 17:42:38 40.7828 -74.8544 240° Southwest 397 457 18,400 1,339 Climbing New Center
Tue 17:43:38 40.7308 -74.9692 239° Southwest 406 467 19,700 1,424 Climbing New Center
Tue 17:44:36 40.6761 -75.0944 240° Southwest 406 467 21,200 1,525 Climbing New Center
Tue 17:45:36 40.6217 -75.2194 240° Southwest 406 467 22,700 1,388 Climbing New Center
Tue 17:46:37 40.5625 -75.3467 239° Southwest 411 473 24,000 893 Climbing New Center
Tue 17:47:37 40.5011 -75.4764 238° Southwest 418 481 24,500 1,091 Climbing New Center
Tue 17:48:38 40.4392 -75.6139 239° Southwest 425 489 26,200 1,672 Climbing New Center
Tue 17:49:39 40.3819 -75.7408 239° Southwest 425 489 27,900 1,373 Climbing New Center
Tue 17:50:36 40.3200 -75.8725 238° Southwest 425 489 28,900 1,678 Climbing New Center
Tue 17:51:37 40.2514 -76.0089 237° Southwest 425 489 31,200 2,231 Climbing New Center
Tue 17:52:37 40.1936 -76.1350 239° Southwest 413 475 33,400 2,067 Climbing New Center
Tue 17:53:36 40.1492 -76.2403 241° Southwest 397 457 35,300 1,289 Climbing New Center
Tue 17:54:38 40.0850 -76.3681 237° Southwest 388 447 36,000 350 Climbing New Center
Tue 17:55:36 40.0244 -76.4961 238° Southwest 393 452 36,000  Level New Center
Tue 17:57:11 39.9378 -76.6847 239° Southwest 423 487 36,000  Level Washington Center
Tue 17:58:08 39.8719 -76.8242 238° Southwest 436 502 36,000  Level Washington Center
Tue 17:59:09 39.8081 -76.9608 239° Southwest 447 514 36,000  Level Washington Center
Tue 18:00:10 39.7461 -77.0947 239° Southwest 447 514 36,000  Level Washington Center
Tue 18:01:10 39.6839 -77.2228 238° Southwest 447 514 36,000  Level Washington Center
Tue 18:02:11 39.6217 -77.3561 239° Southwest 442 509 36,000  Level Washington Center
Tue 18:03:08 39.5592 -77.4892 239° Southwest 442 509 36,000  Level Washington Center
Tue 18:04:09 39.4967 -77.6219 239° Southwest 442 509 36,000  Level Washington Center
Tue 18:05:10 39.4339 -77.7519 238° Southwest 437 503 36,000  Level Washington Center
Tue 18:06:10 39.3753 -77.8817 240° Southwest 437 503 36,000  Level Washington Center
Tue 18:07:09 39.3183 -78.0167 241° Southwest 437 503 36,000  Level Washington Center
Tue 18:08:09 39.2656 -78.1517 243° Southwest 426 490 36,000  Level Washington Center
Tue 18:09:10 39.2128 -78.2839 243° Southwest 426 490 36,000  Level Washington Center
Tue 18:10:10 39.1575 -78.4208 243° Southwest 426 490 36,000  Level Washington Center
Tue 18:11:10 39.1042 -78.5553 243° Southwest 426 490 36,000  Level Washington Center
Tue 18:12:08 39.0486 -78.6867 241° Southwest 421 484 36,000  Level Washington Center
Tue 18:13:09 38.9950 -78.8233 243° Southwest 421 484 36,000  Level Washington Center
Tue 18:14:10 38.9436 -78.9492 242° Southwest 421 484 36,000  Level Washington Center
Tue 18:15:08 38.8900 -79.0803 242° Southwest 416 479 36,000  Level Washington Center
Tue 18:16:08 38.8422 -79.2086 244° Southwest 416 479 36,000  Level Washington Center
Tue 18:17:09 38.8358 -79.3494 267° West 395 455 36,000  Level Washington Center
Tue 18:18:09 38.8336 -79.4878 269° West 395 455 36,000  Level Washington Center
Tue 18:19:10 38.8331 -79.6344 270° West 395 455 36,000 -149 Level Washington Center
Tue 18:20:10 38.8306 -79.7675 269° West 400 460 35,700 -763 Descending Washington Center
Tue 18:21:08 38.8294 -79.9167 269° West 387 445 34,500 -857 Descending Washington Center
Tue 18:22:09 38.8242 -80.0603 267° West 387 445 34,000 -733 Descending Washington Center
Tue 18:23:19 38.8169 -80.2167 267° West 397 457 32,900 -909 Descending Indianapolis Center
Tue 18:24:21 38.8136 -80.3667 268° West 421 484 32,000 -435 Descending Indianapolis Center
Tue 18:25:23 38.8083 -80.5197 268° West 428 493 32,000  Level Indianapolis Center
Tue 18:26:26 38.8039 -80.6719 268° West 427 491 32,000 -144 Level Indianapolis Center
Tue 18:27:28 38.7997 -80.8242 268° West 428 493 31,700 -1,016 Descending Indianapolis Center
Tue 18:28:30 38.7936 -81.0050 268° West 426 490 29,900 -1,645 Descending Indianapolis Center
Tue 18:29:32 38.7725 -81.1614 260° West 443 510 28,300 -919 Descending Indianapolis Center
Tue 18:30:34 38.7464 -81.3164 258° West 445 512 28,000 -145 Descending Indianapolis Center
Tue 18:31:36 38.7189 -81.4789 258° West 438 504 28,000  Level Indianapolis Center
Tue 18:32:38 38.6931 -81.6353 258° West 445 512 28,000 -97 Level Indianapolis Center
Tue 18:33:40 38.6658 -81.7953 258° West 445 512 27,800 -1,065 Descending Indianapolis Center
Tue 18:34:42 38.6397 -81.9469 258° West 441 507 25,800 -1,790 Descending Indianapolis Center
Tue 18:35:44 38.6139 -82.0936 257° West 424 488 24,100 -871 Descending Indianapolis Center
Tue 18:36:46 38.5883 -82.2378 257° West 419 482 24,000 -48 Descending Indianapolis Center
Tue 18:37:48 38.5628 -82.3808 257° West 414 476 24,000  Level Indianapolis Center
Tue 18:38:50 38.5342 -82.5422 257° West 413 475 24,000 -290 Level Indianapolis Center
Tue 18:39:52 38.5092 -82.6875 258° West 417 480 23,400 -1,113 Descending Indianapolis Center
Tue 18:40:54 38.4786 -82.8536 257° West 413 475 21,700 -1,258 Descending Indianapolis Center
Tue 18:41:56 38.4533 -82.9911 257° West 403 464 20,800 -1,258 Descending Indianapolis Center
Tue 18:42:58 38.4481 -83.1289 267° West 397 457 19,100 -1,776 Descending Indianapolis Center
Tue 18:44:01 38.4781 -83.2631 286° West 396 456 17,100 -1,728 Descending Indianapolis Center
Tue 18:45:03 38.5050 -83.3947 285° West 386 444 15,500 -1,548 Descending Indianapolis Center
Tue 18:46:05 38.5322 -83.5253 285° West 381 438 13,900 -1,597 Descending Indianapolis Center
Tue 18:47:07 38.5628 -83.6728 285° West 371 427 12,200 -1,548 Descending Indianapolis Center
Tue 18:48:09 38.5881 -83.7967 285° West 362 417 10,700 -1,065 Descending Indianapolis Center
Tue 18:49:11 38.6142 -83.9183 285° West 356 410 10,000 -339 Descending Indianapolis Center
Tue 18:50:13 38.6733 -84.0342 303° West 351 404 10,000  Level Indianapolis Center
Tue 18:51:15 38.7292 -84.1436 303° West 362 417 10,000  Level Indianapolis Center
Tue 18:52:17 38.7842 -84.2508 303° West 363 418 10,000  Level Indianapolis Center
Tue 18:53:19 38.8394 -84.3581 304° West 361 415 10,000  Level Indianapolis Center
Tue 18:54:21 38.8931 -84.4611 304° West 348 400 10,000 -484 Level Indianapolis Center
Tue 18:55:23 38.9442 -84.5314 313° West 289 333 9,000 -919 Descending Indianapolis Center
Tue 18:56:25 39.0142 -84.5403 354° North 263 303 8,100 -1,306 Descending Indianapolis Center
Tue 18:57:27 39.0947 -84.5403 360° North 245 282 6,300 -1,500 Descending Indianapolis Center
Tue 18:58:29 39.1600 -84.5456 356° North 242 278 5,000 -1,161 Descending Indianapolis Center
Tue 18:59:31 39.1611 -84.6128 271° West 236 272 3,900 -1,364 Descending Indianapolis Center
Tue 19:00:41 39.1167 -84.6667 223° Southwest 154 177 2,000 -1,629 Descending Cincinnati TRACON

Login

Don't have an account? Register now (free) for customized features, flight alerts, and more!